Time;durP1;ratioP1;P1;durP2;ratioP2;P2;SDS_P1;SDS_P2;PMS_P1;PMS_P2;Temp;Humidity;BMP_temperature;BMP_pressure;BME280_temperature;BME280_humidity;BME280_pressure;Samples;Min_cycle;Max_cycle;Signal;HPM_P1;HPM_P2
2022/11/04 00:00:46;;;;;;;3.77;1.90;;;10.60;99.90;;;;;;5054107;28;20586;-55
2022/11/04 00:03:12;;;;;;;4.13;1.60;;;10.60;99.90;;;;;;5059298;28;20225;-53
2022/11/04 00:05:39;;;;;;;1.53;1.23;;;10.50;99.90;;;;;;5067339;28;20193;-54
2022/11/04 00:08:22;;;;;;;2.70;1.30;;;10.50;99.90;;;;;;5069902;28;20282;-54
2022/11/04 00:13:42;;;;;;;1.90;1.40;;;10.50;99.90;;;;;;5060311;28;20216;-55
2022/11/04 00:18:55;;;;;;;3.77;2.13;;;10.50;99.90;;;;;;5068924;28;20662;-54
2022/11/04 00:29:42;;;;;;;2.60;2.40;;;10.50;99.90;;;;;;5063966;28;20208;-54
2022/11/04 00:34:55;;;;;;;4.10;3.10;;;10.40;99.90;;;;;;5057179;28;20599;-55
2022/11/04 00:37:22;;;;;;;5.00;3.70;;;10.40;99.90;;;;;;5055206;28;20202;-54
2022/11/04 00:39:49;;;;;;;5.73;4.13;;;10.40;99.90;;;;;;5059092;28;20697;-54
2022/11/04 00:42:15;;;;;;;5.73;4.73;;;10.40;99.90;;;;;;5060261;28;20208;-54
2022/11/04 00:44:42;;;;;;;10.53;5.60;;;10.40;99.90;;;;;;5063134;28;20666;-54
2022/11/04 00:47:09;;;;;;;11.23;6.73;;;10.30;99.90;;;;;;5054619;28;20550;-55
2022/11/04 00:49:36;;;;;;;10.53;6.47;;;10.40;99.90;;;;;;5058873;28;20201;-54
2022/11/04 00:52:02;;;;;;;10.30;6.57;;;10.30;99.90;;;;;;5063417;28;20207;-54
2022/11/04 00:54:29;;;;;;;9.53;6.67;;;10.30;99.90;;;;;;5059172;28;20408;-54
2022/11/04 00:56:56;;;;;;;11.67;8.67;;;10.30;99.90;;;;;;5063157;28;20204;-54
2022/11/04 00:59:23;;;;;;;10.03;7.63;;;10.20;99.90;;;;;;5058148;28;20215;-54
2022/11/04 01:01:49;;;;;;;10.73;8.57;;;10.10;99.90;;;;;;5058968;28;20209;-54
2022/11/04 01:04:16;;;;;;;10.27;8.03;;;10.10;99.90;;;;;;5062134;28;20222;-55
2022/11/04 01:06:44;;;;;;;13.30;9.07;;;10.10;99.90;;;;;;5067324;28;20226;-54
2022/11/04 01:09:12;;;;;;;11.47;9.73;;;10.10;99.90;;;;;;5064874;28;20991;-54
2022/11/04 01:11:41;;;;;;;13.97;11.23;;;10.10;99.90;;;;;;5062628;28;20353;-55
2022/11/04 01:14:08;;;;;;;19.67;11.07;;;10.10;99.90;;;;;;5064387;28;20203;-54
2022/11/04 01:16:35;;;;;;;14.87;11.17;;;10.10;99.90;;;;;;5057411;28;20211;-55
2022/11/04 01:19:01;;;;;;;17.40;12.17;;;10.10;99.90;;;;;;5066500;28;20232;-54
2022/11/04 01:21:29;;;;;;;20.63;11.43;;;10.10;99.90;;;;;;5057409;28;20265;-54
2022/11/04 01:23:56;;;;;;;16.00;12.10;;;10.10;99.90;;;;;;5055483;28;20198;-55
2022/11/04 01:26:24;;;;;;;17.83;11.70;;;10.10;99.90;;;;;;5064919;28;20222;-55
2022/11/04 01:28:53;;;;;;;19.97;13.70;;;10.10;99.90;;;;;;5060528;28;20196;-55
2022/11/04 01:31:23;;;;;;;16.93;12.40;;;10.20;99.90;;;;;;5061790;28;20284;-56
2022/11/04 01:33:51;;;;;;;16.77;12.93;;;10.20;99.90;;;;;;5065969;28;20226;-60
2022/11/04 01:36:19;;;;;;;19.60;12.60;;;10.20;99.90;;;;;;5068560;28;20202;-55
2022/11/04 01:38:46;;;;;;;13.77;11.53;;;10.20;99.90;;;;;;5067510;28;20201;-54
2022/11/04 01:41:19;;;;;;;14.03;10.20;;;10.20;99.90;;;;;;5057796;28;20227;-55
2022/11/04 01:43:53;;;;;;;13.10;8.90;;;10.10;99.90;;;;;;5064794;28;20211;-54
2022/11/04 01:46:37;;;;;;;13.00;11.10;;;10.10;99.90;;;;;;5056342;28;20691;-54
2022/11/04 01:49:26;;;;;;;14.47;10.30;;;10.10;99.90;;;;;;5067433;28;20205;-54
2022/11/04 01:52:01;;;;;;;13.33;9.90;;;10.10;99.90;;;;;;5069365;28;20285;-54
2022/11/04 01:54:29;;;;;;;15.40;9.17;;;10.10;99.90;;;;;;5059552;28;20280;-55
2022/11/04 01:56:57;;;;;;;13.27;8.87;;;10.10;99.90;;;;;;5055042;28;20729;-55
2022/11/04 01:59:29;;;;;;;10.27;7.97;;;10.10;99.90;;;;;;5061292;28;20641;-55
2022/11/04 02:01:55;;;;;;;10.13;8.40;;;10.00;99.90;;;;;;5064363;28;20199;-53
2022/11/04 02:04:25;;;;;;;11.07;7.90;;;10.00;99.90;;;;;;5064808;28;20837;-52
2022/11/04 02:07:08;;;;;;;11.70;7.43;;;10.00;99.90;;;;;;5061369;28;20201;-55
2022/11/04 02:09:37;;;;;;;11.00;6.40;;;10.00;99.90;;;;;;5061038;28;20296;-58
2022/11/04 02:14:50;;;;;;;8.30;5.87;;;9.90;99.90;;;;;;5061214;28;20218;-54
2022/11/04 02:17:17;;;;;;;11.77;6.33;;;9.90;99.90;;;;;;5062693;28;20216;-54
2022/11/04 02:19:58;;;;;;;11.17;6.67;;;9.90;99.90;;;;;;5063939;28;20826;-53
2022/11/04 02:22:44;;;;;;;10.03;6.13;;;9.90;99.90;;;;;;5062111;28;20548;-53
2022/11/04 02:25:35;;;;;;;13.63;6.63;;;9.80;99.90;;;;;;5062057;28;20188;-53
2022/11/04 02:28:40;;;;;;;9.00;6.43;;;9.80;99.90;;;;;;5069562;28;20202;-54
2022/11/04 02:31:17;;;;;;;9.17;5.80;;;9.70;99.90;;;;;;5061140;28;20199;-55
2022/11/04 02:34:09;;;;;;;10.37;5.87;;;9.70;99.90;;;;;;5062050;28;21723;-54
2022/11/04 02:36:49;;;;;;;8.83;6.10;;;9.70;99.90;;;;;;5061718;28;20216;-54
2022/11/04 02:39:35;;;;;;;8.10;5.77;;;9.70;99.90;;;;;;5065789;28;22106;-56
2022/11/04 02:42:19;;;;;;;9.23;5.97;;;9.60;99.90;;;;;;5068625;28;20233;-54
2022/11/04 02:45:23;;;;;;;11.60;6.33;;;9.60;99.90;;;;;;5056001;28;20197;-55
2022/11/04 02:47:56;;;;;;;9.37;5.10;;;9.50;99.90;;;;;;5058885;28;20235;-55
2022/11/04 02:50:37;;;;;;;8.30;5.03;;;9.50;99.90;;;;;;5064795;28;20652;-56
2022/11/04 02:53:44;;;;;;;7.50;4.50;;;9.50;99.90;;;;;;5061832;28;20213;-54
2022/11/04 02:56:14;;;;;;;7.50;4.33;;;9.50;99.90;;;;;;5058160;28;20520;-58
2022/11/04 02:58:56;;;;;;;6.97;4.03;;;9.40;99.90;;;;;;5060763;28;20207;-53
2022/11/04 03:01:28;;;;;;;7.03;4.30;;;9.40;99.90;;;;;;5059620;28;20622;-54
2022/11/04 03:04:03;;;;;;;9.07;4.47;;;9.40;99.90;;;;;;5059088;28;20202;-54
2022/11/04 03:06:32;;;;;;;5.20;3.50;;;9.40;99.90;;;;;;5064335;28;20196;-55
2022/11/04 03:09:01;;;;;;;6.73;3.43;;;9.40;99.90;;;;;;5062370;28;20222;-55
2022/11/04 03:11:28;;;;;;;4.83;3.23;;;9.30;99.90;;;;;;5065159;28;20255;-55
2022/11/04 03:14:21;;;;;;;6.30;3.00;;;9.30;99.90;;;;;;5063175;28;20220;-53
2022/11/04 03:16:53;;;;;;;7.57;2.70;;;9.30;99.90;;;;;;5062302;28;20238;-55
2022/11/04 03:19:26;;;;;;;12.83;3.13;;;9.30;99.90;;;;;;5062776;28;20232;-53
2022/11/04 03:22:10;;;;;;;3.23;2.43;;;9.30;99.90;;;;;;5067053;28;20746;-55
2022/11/04 03:24:37;;;;;;;6.10;2.47;;;9.30;99.90;;;;;;5064408;28;20320;-54
2022/11/04 03:27:30;;;;;;;5.43;2.87;;;9.30;99.90;;;;;;5065318;28;20200;-54
2022/11/04 03:30:08;;;;;;;8.10;2.93;;;9.30;99.90;;;;;;5060170;28;20201;-55
2022/11/04 03:32:41;;;;;;;4.43;2.23;;;9.20;99.90;;;;;;5064995;28;20292;-55
2022/11/04 03:35:09;;;;;;;4.73;2.20;;;9.20;99.90;;;;;;5064448;28;20655;-55
2022/11/04 03:37:37;;;;;;;4.40;2.50;;;9.20;99.90;;;;;;5066433;28;20202;-55
2022/11/04 03:40:05;;;;;;;4.53;2.53;;;9.20;99.90;;;;;;5066043;28;20210;-55
2022/11/04 03:42:36;;;;;;;5.30;2.57;;;9.10;99.90;;;;;;5046785;28;20199;-55
2022/11/04 03:45:03;;;;;;;5.60;2.60;;;9.10;99.90;;;;;;5064228;28;20836;-55
2022/11/04 03:47:30;;;;;;;4.93;2.67;;;9.10;99.90;;;;;;5064926;28;20682;-55
2022/11/04 03:50:07;;;;;;;8.07;2.73;;;9.20;99.90;;;;;;5065934;28;20244;-57
2022/11/04 03:52:34;;;;;;;3.80;2.33;;;9.20;99.90;;;;;;5067176;28;20252;-55
2022/11/04 03:55:03;;;;;;;3.93;2.37;;;9.20;99.90;;;;;;5064817;28;20195;-54
2022/11/04 03:57:45;;;;;;;4.70;2.33;;;9.20;99.90;;;;;;5060834;28;20199;-54
2022/11/04 04:00:14;;;;;;;4.97;2.50;;;9.20;99.90;;;;;;5062454;28;20226;-55
2022/11/04 04:03:00;;;;;;;4.53;2.80;;;9.40;99.90;;;;;;5081581;28;20207;-56
2022/11/04 04:05:42;;;;;;;6.53;2.27;;;9.30;99.90;;;;;;5070245;28;20199;-57
2022/11/04 04:08:36;;;;;;;6.90;2.50;;;9.30;99.90;;;;;;5064588;28;20198;-56
2022/11/04 04:11:07;;;;;;;4.70;2.40;;;9.30;99.90;;;;;;5062343;28;20318;-56
2022/11/04 04:13:37;;;;;;;4.33;2.27;;;9.30;99.90;;;;;;5064948;28;20194;-56
2022/11/04 04:16:17;;;;;;;6.83;2.17;;;9.20;99.90;;;;;;5064878;28;20910;-55
2022/11/04 04:18:56;;;;;;;4.27;2.47;;;9.20;99.90;;;;;;5063409;28;20191;-54
2022/11/04 04:21:32;;;;;;;6.07;2.50;;;9.20;99.90;;;;;;5063950;28;20240;-63
2022/11/04 04:29:35;;;;;;;5.37;2.43;;;9.20;99.90;;;;;;5062319;28;20196;-55
2022/11/04 04:32:04;;;;;;;3.67;2.00;;;9.10;99.90;;;;;;5065451;28;20200;-55
2022/11/04 04:34:32;;;;;;;7.30;2.40;;;9.20;99.90;;;;;;5062536;28;20233;-55
2022/11/04 04:37:19;;;;;;;4.73;2.10;;;9.30;99.90;;;;;;5063413;28;20198;-54
2022/11/04 04:45:35;;;;;;;6.43;2.40;;;9.30;99.90;;;;;;5062009;28;20658;-54
2022/11/04 04:48:02;;;;;;;4.20;2.23;;;9.30;99.90;;;;;;5063757;28;20268;-55
2022/11/04 04:50:36;;;;;;;9.30;2.77;;;9.30;99.90;;;;;;5065823;28;20323;-54
2022/11/04 04:53:03;;;;;;;3.37;2.10;;;9.20;99.90;;;;;;5065579;28;20202;-55
2022/11/04 04:55:30;;;;;;;3.13;2.00;;;9.30;99.90;;;;;;5064783;28;20644;-54
2022/11/04 04:57:57;;;;;;;3.83;1.87;;;9.30;99.90;;;;;;5063431;28;20644;-55
2022/11/04 05:00:25;;;;;;;6.33;2.73;;;9.30;99.90;;;;;;5062463;28;20212;-56
2022/11/04 05:02:52;;;;;;;3.50;1.97;;;9.40;99.90;;;;;;5065171;28;20287;-55
2022/11/04 05:05:19;;;;;;;5.93;2.10;;;9.30;99.90;;;;;;5063596;28;20376;-55
2022/11/04 05:07:46;;;;;;;4.40;2.20;;;9.20;99.90;;;;;;5062831;28;20198;-56
2022/11/04 05:10:14;;;;;;;4.63;2.30;;;9.30;99.90;;;;;;5063690;28;20219;-55
2022/11/04 05:15:47;;;;;;;3.27;1.80;;;9.10;99.90;;;;;;4989817;28;20309;-55
2022/11/04 05:18:14;;;;;;;3.70;2.03;;;9.10;99.90;;;;;;4990206;28;20225;-55
2022/11/04 05:20:41;;;;;;;6.27;3.10;;;9.10;99.90;;;;;;5007037;28;20692;-56
2022/11/04 05:23:10;;;;;;;6.50;2.30;;;9.00;99.90;;;;;;4983269;28;20194;-55
2022/11/04 05:25:38;;;;;;;5.17;2.60;;;9.10;99.90;;;;;;4985432;28;20202;-55
2022/11/04 05:28:05;;;;;;;6.20;2.80;;;8.90;99.90;;;;;;4983888;28;20241;-55
2022/11/04 05:30:33;;;;;;;4.70;2.20;;;8.90;99.90;;;;;;4980602;28;20229;-55
2022/11/04 05:33:00;;;;;;;8.27;2.10;;;8.90;99.90;;;;;;4981255;28;20297;-55
2022/11/04 05:35:32;;;;;;;4.73;2.30;;;8.90;99.90;;;;;;4981877;28;20212;-55
2022/11/04 05:37:59;;;;;;;5.63;2.20;;;9.00;99.90;;;;;;4990515;28;20202;-55
2022/11/04 05:40:25;;;;;;;5.27;2.30;;;9.00;99.90;;;;;;4993037;28;20237;-55
2022/11/04 05:42:52;;;;;;;4.97;2.30;;;8.90;99.90;;;;;;4985564;28;20252;-55
2022/11/04 05:45:19;;;;;;;4.90;2.43;;;8.90;99.90;;;;;;4989438;28;20230;-55
2022/11/04 05:47:46;;;;;;;5.00;2.30;;;8.90;99.90;;;;;;5057329;28;20211;-55
2022/11/04 05:50:12;;;;;;;3.60;2.23;;;9.10;99.90;;;;;;5067777;28;20811;-56
2022/11/04 05:52:39;;;;;;;9.00;3.03;;;9.10;99.90;;;;;;5068698;28;20203;-54
2022/11/04 05:55:06;;;;;;;4.10;2.20;;;9.20;99.90;;;;;;5063112;28;20289;-55
2022/11/04 05:57:34;;;;;;;6.33;2.27;;;9.10;99.90;;;;;;5064182;28;20294;-53
2022/11/04 06:00:01;;;;;;;4.43;2.53;;;9.20;99.90;;;;;;5059027;28;20746;-55
2022/11/04 06:02:28;;;;;;;3.30;2.20;;;9.20;99.90;;;;;;5061727;28;20605;-54
2022/11/04 06:04:55;;;;;;;6.77;2.23;;;9.20;99.90;;;;;;5063927;28;20214;-54
2022/11/04 06:07:21;;;;;;;5.90;2.60;;;9.20;99.90;;;;;;5069837;28;20213;-55
2022/11/04 06:09:48;;;;;;;3.97;1.93;;;9.20;99.90;;;;;;5064020;28;20716;-55
2022/11/04 06:12:15;;;;;;;5.00;2.40;;;9.20;99.90;;;;;;5068696;28;20879;-54
2022/11/04 06:14:43;;;;;;;4.37;2.10;;;9.20;99.90;;;;;;5062376;28;20205;-54
2022/11/04 06:17:15;;;;;;;6.23;2.43;;;9.30;99.90;;;;;;5061861;28;20299;-54
2022/11/04 06:19:42;;;;;;;3.53;1.73;;;9.20;99.90;;;;;;5061949;28;20219;-54
2022/11/04 06:22:14;;;;;;;4.63;2.10;;;9.20;99.90;;;;;;5062323;28;20214;-54
2022/11/04 06:24:41;;;;;;;3.73;2.03;;;9.20;99.90;;;;;;5062565;28;20199;-54
2022/11/04 06:27:09;;;;;;;1.80;1.60;;;9.20;99.90;;;;;;5061779;28;20191;-54
2022/11/04 06:29:39;;;;;;;5.23;2.20;;;9.20;99.90;;;;;;5059937;28;20201;-57
2022/11/04 06:32:14;;;;;;;4.53;1.73;;;9.20;99.90;;;;;;5060376;28;20223;-55
2022/11/04 06:34:41;;;;;;;7.53;2.77;;;9.20;99.90;;;;;;5062361;28;20286;-54
2022/11/04 06:37:09;;;;;;;5.77;2.30;;;9.20;99.90;;;;;;5062953;28;20202;-54
2022/11/04 06:39:36;;;;;;;4.13;2.13;;;9.20;99.90;;;;;;5062864;28;20241;-54
2022/11/04 06:42:04;;;;;;;8.23;2.03;;;9.20;99.90;;;;;;5064567;28;20625;-55
2022/11/04 06:44:33;;;;;;;8.27;2.23;;;9.30;99.90;;;;;;5064606;28;20656;-55
2022/11/04 06:47:00;;;;;;;5.03;2.47;;;9.20;99.90;;;;;;5064594;28;20241;-54
2022/11/04 06:49:27;;;;;;;6.47;2.20;;;9.20;99.90;;;;;;5066073;28;20208;-56
2022/11/04 06:51:54;;;;;;;6.97;2.43;;;9.30;99.90;;;;;;5066944;28;20198;-55
2022/11/04 06:54:21;;;;;;;3.93;2.20;;;9.30;99.90;;;;;;5065946;28;20214;-56
2022/11/04 06:56:48;;;;;;;4.97;2.23;;;9.30;99.90;;;;;;5066817;28;20188;-56
2022/11/04 06:59:17;;;;;;;4.93;2.47;;;9.40;99.90;;;;;;5063874;28;20213;-55
2022/11/04 07:01:45;;;;;;;4.40;2.63;;;9.40;99.90;;;;;;5057325;28;20269;-54
2022/11/04 07:04:12;;;;;;;5.93;2.80;;;9.40;99.90;;;;;;5063645;28;20226;-54
2022/11/04 07:06:42;;;;;;;5.40;2.47;;;9.50;99.90;;;;;;5062902;28;20224;-54
2022/11/04 07:09:12;;;;;;;7.03;3.00;;;9.50;99.90;;;;;;5061376;28;20199;-54
2022/11/04 07:11:40;;;;;;;4.23;2.33;;;9.50;99.90;;;;;;5065734;28;20611;-55
2022/11/04 07:14:08;;;;;;;4.20;2.43;;;9.40;99.90;;;;;;5070082;28;20634;-57
2022/11/04 07:16:35;;;;;;;5.10;2.90;;;9.50;99.90;;;;;;5067242;28;20258;-54
2022/11/04 07:19:02;;;;;;;4.73;2.30;;;9.60;99.90;;;;;;5062828;28;20211;-54
2022/11/04 07:21:29;;;;;;;6.07;3.07;;;9.60;99.90;;;;;;5066184;28;20221;-58
2022/11/04 07:23:56;;;;;;;3.80;2.60;;;9.70;99.90;;;;;;5065654;28;20285;-55
2022/11/04 07:26:23;;;;;;;7.97;3.00;;;9.60;99.90;;;;;;5064974;28;20203;-55
2022/11/04 07:28:50;;;;;;;6.03;3.00;;;9.70;99.90;;;;;;5057891;28;20187;-55
2022/11/04 07:31:17;;;;;;;3.83;2.63;;;9.60;99.90;;;;;;4698811;28;10000106;-55
2022/11/04 07:33:48;;;;;;;5.57;2.30;;;9.70;99.90;;;;;;5057394;28;20207;-56
2022/11/04 07:36:16;;;;;;;4.10;2.00;;;9.80;99.90;;;;;;5060223;28;20249;-55
2022/11/04 07:38:43;;;;;;;3.97;2.40;;;9.80;99.90;;;;;;5059524;28;20218;-55
2022/11/04 07:41:11;;;;;;;8.97;2.50;;;9.80;99.90;;;;;;5061741;28;21519;-56
2022/11/04 07:43:38;;;;;;;5.27;2.60;;;9.90;99.90;;;;;;5063683;28;20199;-55
2022/11/04 07:46:10;;;;;;;9.23;2.70;;;9.90;99.90;;;;;;5067524;28;20602;-54
2022/11/04 07:48:38;;;;;;;6.73;2.63;;;10.00;99.90;;;;;;5064788;28;20659;-56
2022/11/04 07:51:07;;;;;;;7.00;2.80;;;10.10;99.90;;;;;;5066353;28;20666;-55
2022/11/04 07:53:34;;;;;;;5.80;2.77;;;10.10;99.90;;;;;;5069474;28;20227;-56
2022/11/04 07:56:06;;;;;;;6.13;3.07;;;9.90;99.90;;;;;;5068947;28;20212;-56
2022/11/04 07:58:33;;;;;;;6.43;2.60;;;10.00;99.90;;;;;;5067469;28;20294;-54
2022/11/04 08:01:10;;;;;;;5.57;2.60;;;10.10;99.90;;;;;;5067546;28;20207;-56
2022/11/04 08:03:37;;;;;;;7.90;3.00;;;10.00;99.90;;;;;;5062145;28;20561;-54
2022/11/04 08:06:06;;;;;;;7.87;2.67;;;10.10;99.90;;;;;;5060881;28;20187;-55
2022/11/04 08:08:33;;;;;;;8.10;3.03;;;10.20;99.90;;;;;;5066862;28;20565;-54
2022/11/04 08:11:15;;;;;;;4.53;3.17;;;10.00;99.90;;;;;;5064776;28;20568;-55
2022/11/04 08:13:45;;;;;;;5.40;2.57;;;10.00;99.90;;;;;;5081705;28;20235;-54
2022/11/04 08:16:14;;;;;;;7.23;3.77;;;9.90;99.90;;;;;;5055669;28;20207;-54
2022/11/04 08:18:42;;;;;;;6.43;2.97;;;9.90;99.90;;;;;;5059604;28;20215;-55
2022/11/04 08:21:09;;;;;;;7.83;2.73;;;10.10;99.90;;;;;;5055553;28;20708;-54
2022/11/04 08:23:37;;;;;;;11.10;3.37;;;10.00;99.90;;;;;;5055324;28;20195;-54
2022/11/04 08:26:11;;;;;;;4.87;2.77;;;10.10;99.90;;;;;;5057995;28;20200;-54
2022/11/04 08:28:38;;;;;;;10.77;3.30;;;10.20;99.90;;;;;;5055463;28;20195;-59
2022/11/04 08:31:10;;;;;;;6.90;3.20;;;10.10;99.90;;;;;;5060638;28;20198;-53
2022/11/04 08:33:38;;;;;;;9.80;3.50;;;10.10;99.90;;;;;;5053189;28;20838;-54
2022/11/04 08:36:08;;;;;;;6.17;3.20;;;10.10;99.90;;;;;;5061196;28;20278;-55
2022/11/04 08:38:36;;;;;;;7.70;3.67;;;10.00;99.90;;;;;;5057776;28;20561;-54
2022/11/04 08:41:05;;;;;;;7.63;3.07;;;10.10;99.90;;;;;;5061114;28;20678;-55
2022/11/04 08:43:33;;;;;;;5.70;3.20;;;10.20;99.90;;;;;;5060095;28;20546;-55
2022/11/04 08:46:01;;;;;;;7.80;2.90;;;10.30;99.90;;;;;;5053122;28;20204;-55
2022/11/04 08:48:27;;;;;;;5.00;3.30;;;10.30;99.90;;;;;;5057653;28;20205;-54
2022/11/04 08:51:00;;;;;;;5.33;3.13;;;10.30;99.90;;;;;;5052435;28;20199;-56
2022/11/04 08:53:27;;;;;;;5.67;3.57;;;10.60;99.90;;;;;;5063259;28;20196;-54
2022/11/04 08:55:54;;;;;;;7.63;3.47;;;11.00;99.90;;;;;;5064879;28;20943;-55
2022/11/04 08:58:22;;;;;;;6.57;3.30;;;11.10;99.90;;;;;;5056477;28;20978;-55
2022/11/04 09:00:51;;;;;;;7.37;3.33;;;10.90;99.90;;;;;;5055035;28;20231;-54
2022/11/04 09:03:18;;;;;;;5.37;3.13;;;10.90;99.90;;;;;;5061211;28;20191;-57
2022/11/04 09:05:46;;;;;;;7.50;3.40;;;10.80;99.90;;;;;;5055551;28;20279;-55
2022/11/04 09:08:16;;;;;;;8.63;3.33;;;10.60;99.90;;;;;;5059975;28;20192;-62
2022/11/04 09:10:45;;;;;;;7.87;2.93;;;10.70;99.90;;;;;;5062595;28;20229;-56
2022/11/04 09:13:14;;;;;;;7.10;3.77;;;10.70;99.90;;;;;;5062376;28;20241;-56
2022/11/04 09:15:41;;;;;;;6.23;3.47;;;10.60;99.90;;;;;;5054909;28;20245;-54
2022/11/04 09:18:09;;;;;;;9.83;3.30;;;10.60;99.90;;;;;;5058685;28;20280;-62
2022/11/04 09:20:40;;;;;;;5.47;2.83;;;10.90;99.90;;;;;;5066268;28;20191;-62
2022/11/04 09:23:07;;;;;;;6.33;3.43;;;11.50;99.90;;;;;;5067535;28;20214;-61
2022/11/04 09:25:35;;;;;;;8.40;2.93;;;11.80;99.90;;;;;;5061824;28;20577;-61
2022/11/04 09:28:03;;;;;;;6.27;3.10;;;11.90;99.90;;;;;;5059524;28;20202;-61
2022/11/04 09:30:30;;;;;;;9.20;3.70;;;11.90;99.90;;;;;;5060842;28;20226;-62
2022/11/04 09:32:58;;;;;;;6.70;3.37;;;12.00;99.90;;;;;;5055426;28;20557;-61
2022/11/04 09:35:26;;;;;;;6.70;3.03;;;12.10;99.90;;;;;;5055423;28;20199;-61
2022/11/04 09:37:54;;;;;;;9.67;4.97;;;12.00;99.90;;;;;;5064664;28;20199;-61
2022/11/04 09:40:23;;;;;;;7.53;3.40;;;12.20;99.90;;;;;;5064099;28;20343;-62
2022/11/04 09:43:09;;;;;;;6.00;3.13;;;12.20;99.90;;;;;;5050223;28;20226;-56
2022/11/04 09:45:40;;;;;;;10.40;3.90;;;11.80;99.90;;;;;;5058239;28;20195;-55
2022/11/04 09:48:14;;;;;;;6.50;3.70;;;11.60;99.90;;;;;;5059221;28;20235;-57
2022/11/04 09:50:57;;;;;;;7.73;3.80;;;11.50;99.90;;;;;;5056234;28;20284;-56
2022/11/04 09:53:48;;;;;;;8.47;3.93;;;11.30;99.90;;;;;;5055351;28;20208;-57
2022/11/04 09:56:22;;;;;;;10.43;3.93;;;11.40;99.90;;;;;;5062032;28;20208;-53
2022/11/04 09:58:50;;;;;;;9.43;4.03;;;11.60;99.90;;;;;;5075457;28;20203;-54
2022/11/04 10:01:50;;;;;;;5.73;3.30;;;11.70;99.90;;;;;;5063926;28;20218;-57
2022/11/04 10:04:42;;;;;;;9.93;3.73;;;11.60;99.90;;;;;;5063799;28;20401;-54
2022/11/04 10:07:24;;;;;;;5.17;3.10;;;11.50;99.90;;;;;;5063925;28;20313;-54
2022/11/04 10:09:54;;;;;;;11.87;4.10;;;11.40;99.90;;;;;;5057933;28;20575;-54
2022/11/04 10:12:29;;;;;;;9.10;3.63;;;11.40;99.90;;;;;;5053945;28;20234;-53
2022/11/04 10:15:08;;;;;;;7.77;4.27;;;11.50;99.90;;;;;;5057000;28;20198;-53
2022/11/04 10:18:10;;;;;;;9.40;4.30;;;11.50;99.90;;;;;;5065510;28;20212;-53
2022/11/04 10:20:47;;;;;;;8.57;4.47;;;11.70;99.90;;;;;;5069334;28;20457;-55
2022/11/04 10:23:43;;;;;;;7.97;4.37;;;11.80;99.90;;;;;;5077393;28;20704;-55
2022/11/04 10:26:23;;;;;;;5.57;3.80;;;11.90;99.90;;;;;;5071129;28;20202;-56
2022/11/04 10:29:03;;;;;;;8.30;3.70;;;12.00;99.90;;;;;;5065247;28;20206;-56
2022/11/04 10:31:30;;;;;;;10.33;4.17;;;11.90;99.90;;;;;;5065649;28;20714;-55
2022/11/04 10:34:04;;;;;;;13.73;4.03;;;12.10;99.90;;;;;;5059970;28;20200;-56
2022/11/04 10:36:32;;;;;;;9.47;4.47;;;11.90;99.90;;;;;;5070078;28;20207;-55
2022/11/04 10:39:03;;;;;;;7.27;4.23;;;11.90;99.90;;;;;;5067389;28;20201;-55
2022/11/04 10:41:36;;;;;;;9.83;4.23;;;12.30;99.90;;;;;;5061994;28;20667;-54
2022/11/04 10:44:12;;;;;;;6.77;4.07;;;12.30;99.90;;;;;;5061911;28;20225;-55
2022/11/04 10:46:58;;;;;;;7.00;4.67;;;12.40;99.90;;;;;;5060051;28;20684;-56
2022/11/04 10:49:52;;;;;;;10.83;4.40;;;12.40;99.90;;;;;;5060358;28;20306;-55
2022/11/04 10:52:40;;;;;;;12.17;4.37;;;12.40;99.90;;;;;;5062505;28;20205;-55
2022/11/04 10:55:36;;;;;;;10.67;4.27;;;12.30;99.90;;;;;;5064845;28;20852;-55
2022/11/04 10:58:15;;;;;;;10.23;3.93;;;12.20;99.90;;;;;;5066666;28;20201;-56
2022/11/04 11:00:43;;;;;;;12.63;5.13;;;12.50;99.90;;;;;;5065777;28;20564;-54
2022/11/04 11:03:31;;;;;;;9.13;4.50;;;12.30;99.90;;;;;;5066411;28;20594;-55
2022/11/04 11:06:10;;;;;;;9.10;4.77;;;12.40;99.90;;;;;;5061221;28;20581;-56
2022/11/04 11:08:38;;;;;;;9.63;4.60;;;12.40;99.90;;;;;;5061127;28;20196;-55
2022/11/04 11:11:05;;;;;;;7.87;4.40;;;12.40;99.90;;;;;;5069435;28;20736;-54
2022/11/04 11:13:41;;;;;;;9.30;4.77;;;12.30;99.90;;;;;;5058175;28;20268;-55
2022/11/04 11:16:18;;;;;;;10.00;5.03;;;12.30;99.90;;;;;;5069395;28;20571;-53
2022/11/04 11:19:10;;;;;;;9.20;5.43;;;12.10;99.90;;;;;;5069868;28;20255;-55
2022/11/04 11:21:49;;;;;;;8.47;5.37;;;12.10;99.90;;;;;;5073294;28;20213;-55
2022/11/04 11:24:23;;;;;;;9.50;5.00;;;12.30;99.90;;;;;;5052273;28;20281;-55
2022/11/04 11:26:56;;;;;;;7.73;4.90;;;12.70;99.90;;;;;;5052510;28;20193;-55
2022/11/04 11:29:39;;;;;;;9.27;5.50;;;12.90;99.90;;;;;;5060397;28;20665;-56
2022/11/04 11:32:21;;;;;;;13.23;5.77;;;12.90;99.90;;;;;;5058696;28;20831;-59
2022/11/04 11:34:48;;;;;;;10.97;5.30;;;13.00;99.90;;;;;;5063915;28;20200;-57
2022/11/04 11:37:23;;;;;;;16.30;6.70;;;13.20;99.90;;;;;;5063425;28;20520;-56
2022/11/04 11:39:50;;;;;;;11.10;5.50;;;13.60;99.90;;;;;;5064220;28;20292;-57
2022/11/04 11:42:19;;;;;;;9.93;5.80;;;13.70;99.90;;;;;;5058569;28;20308;-57
2022/11/04 11:44:53;;;;;;;10.80;5.67;;;13.40;99.90;;;;;;5067531;28;20301;-59
2022/11/04 11:47:29;;;;;;;10.47;5.90;;;13.70;99.90;;;;;;5065757;28;20201;-55
2022/11/04 11:50:18;;;;;;;10.77;6.37;;;14.20;99.90;;;;;;5061662;28;20210;-60
2022/11/04 11:52:51;;;;;;;8.63;6.30;;;14.30;99.90;;;;;;5075257;28;20212;-56
2022/11/04 11:55:27;;;;;;;12.73;6.87;;;14.30;99.90;;;;;;5064241;28;20241;-59
2022/11/04 11:58:18;;;;;;;8.70;5.43;;;14.60;99.90;;;;;;5062966;28;20201;-56
2022/11/04 12:01:27;;;;;;;8.20;6.00;;;14.30;39.10;;;;;;5063987;28;20214;-54
2022/11/04 12:03:54;;;;;;;10.77;6.57;;;14.30;99.90;;;;;;5071044;28;20656;-55
2022/11/04 12:06:47;;;;;;;9.43;6.57;;;14.40;1.00;;;;;;5060839;28;20214;-56
2022/11/04 12:09:49;;;;;;;14.10;6.87;;;14.20;1.00;;;;;;5064076;28;20288;-55
2022/11/04 12:12:21;;;;;;;10.10;6.73;;;13.80;1.00;;;;;;5050299;28;20668;-55
2022/11/04 12:15:17;;;;;;;9.53;6.70;;;13.70;1.00;;;;;;5063343;28;20221;-56
2022/11/04 12:17:50;;;;;;;11.83;7.13;;;13.50;21.90;;;;;;5066555;28;20201;-55
2022/11/04 12:20:31;;;;;;;10.57;7.33;;;13.60;61.00;;;;;;5070178;28;20209;-57
2022/11/04 12:23:17;;;;;;;11.80;7.97;;;13.60;1.00;;;;;;5058418;28;20548;-55
2022/11/04 12:26:03;;;;;;;14.40;8.03;;;14.00;21.80;;;;;;5063470;28;20292;-56
2022/11/04 12:28:44;;;;;;;10.83;7.47;;;15.00;99.90;;;;;;5059454;28;20194;-56
2022/11/04 12:31:43;;;;;;;11.97;7.63;;;15.60;99.90;;;;;;5065558;28;20201;-55
2022/11/04 12:34:18;;;;;;;9.47;7.43;;;15.60;1.00;;;;;;5037019;28;20204;-56
2022/11/04 12:37:27;;;;;;;13.73;7.93;;;15.30;27.40;;;;;;5067159;28;20295;-56
2022/11/04 12:40:03;;;;;;;13.47;8.23;;;15.10;60.30;;;;;;5063896;28;20260;-56
2022/11/04 12:42:36;;;;;;;14.73;7.97;;;15.00;99.90;;;;;;5068754;28;20252;-56
2022/11/04 12:45:24;;;;;;;11.07;7.43;;;15.20;99.90;;;;;;5069532;28;20634;-56
2022/11/04 12:47:57;;;;;;;14.03;7.60;;;15.30;1.00;;;;;;5075828;28;20239;-55
2022/11/04 12:50:32;;;;;;;10.83;7.77;;;15.20;1.00;;;;;;5061637;28;20195;-56
2022/11/04 12:53:14;;;;;;;8.23;6.10;;;15.40;1.00;;;;;;5067693;28;20588;-55
2022/11/04 12:56:09;;;;;;;9.17;6.97;;;15.40;1.00;;;;;;5060914;28;20300;-56
2022/11/04 12:59:13;;;;;;;12.10;5.90;;;14.70;99.90;;;;;;5064437;28;20232;-54
2022/11/04 13:01:51;;;;;;;8.93;5.67;;;14.80;1.00;;;;;;5059574;28;20219;-57
2022/11/04 13:04:27;;;;;;;11.47;6.67;;;14.90;1.00;;;;;;5059545;28;20254;-56
2022/11/04 13:06:57;;;;;;;11.53;6.50;;;14.80;3.40;;;;;;5059527;28;20206;-55
2022/11/04 13:09:44;;;;;;;12.77;6.90;;;14.50;99.90;;;;;;5063617;28;20565;-56
2022/11/04 13:12:18;;;;;;;8.77;6.10;;;14.70;1.00;;;;;;5064999;28;20236;-56
2022/11/04 13:15:00;;;;;;;11.27;7.03;;;14.50;1.00;;;;;;5060316;28;20670;-55
2022/11/04 13:17:36;;;;;;;10.47;6.80;;;14.50;99.90;;;;;;5065288;28;20203;-55
2022/11/04 13:20:14;;;;;;;8.30;6.90;;;14.60;1.00;;;;;;5052813;28;20820;-58
2022/11/04 13:22:47;;;;;;;8.53;5.47;;;14.20;99.90;;;;;;5058600;28;20212;-55
2022/11/04 13:25:29;;;;;;;7.17;5.53;;;13.90;1.00;;;;;;5068957;28;20259;-53
2022/11/04 13:27:57;;;;;;;7.57;5.60;;;13.90;1.00;;;;;;5066541;28;20614;-55
2022/11/04 13:30:30;;;;;;;8.63;5.53;;;14.00;1.00;;;;;;5077078;28;20198;-55
2022/11/04 13:33:12;;;;;;;10.17;5.33;;;13.80;1.00;;;;;;5051948;28;20230;-61
2022/11/04 13:36:00;;;;;;;10.17;5.43;;;13.70;1.00;;;;;;5056341;28;20228;-56
2022/11/04 13:38:38;;;;;;;9.00;5.73;;;13.90;99.90;;;;;;5063695;28;20206;-55
2022/11/04 13:41:25;;;;;;;9.10;6.23;;;13.70;1.00;;;;;;5057235;28;20858;-54
2022/11/04 13:44:04;;;;;;;10.40;5.90;;;13.80;1.00;;;;;;5063755;28;20233;-56
2022/11/04 13:46:33;;;;;;;9.57;5.47;;;13.70;99.90;;;;;;5062478;28;20714;-55
2022/11/04 13:49:04;;;;;;;8.03;5.23;;;13.60;99.90;;;;;;5060685;28;20308;-56
2022/11/04 13:52:02;;;;;;;7.27;4.60;;;13.70;99.90;;;;;;5059784;28;20281;-56
2022/11/04 13:54:32;;;;;;;6.47;4.07;;;13.70;48.20;;;;;;5065492;28;20203;-58